ADDS METAR Data INFO
IDs: Format: Raw Decoded Include TAF

Data at: 0318 UTC 20 Jul 2018

KTTA 200300Z AUTO 00000KT 10SM CLR 20/16 A3005 RMK AO2 T01980160
KTTA 200240Z AUTO 00000KT 10SM CLR 20/16 A3005 RMK AO2 T01960156
KTTA 200220Z AUTO 00000KT 10SM CLR 20/16 A3005 RMK AO2 T01980161
KTTA 200200Z AUTO 00000KT 10SM CLR 21/17 A3004 RMK AO2 T02080165
KTTA 200140Z AUTO 00000KT 10SM CLR 22/15 A3004 RMK AO2 T02160146
KTTA 200120Z AUTO 00000KT 10SM CLR 22/15 A3003 RMK AO2 T02200150
KTTA 200100Z AUTO 00000KT 10SM CLR 23/16 A3003 RMK AO2 T02280155
KTTA 200040Z AUTO 00000KT 10SM CLR 24/14 A3002 RMK AO2 T02430140
KTTA 200020Z AUTO 00000KT 10SM CLR 25/16 A3002 RMK AO2 T02500158
KTTA 200000Z AUTO 00000KT 10SM CLR 28/13 A3001 RMK AO2 T02770129
KTTA 192340Z AUTO 00000KT 10SM CLR 29/11 A3001 RMK AO2 T02870113
KTTA 192320Z AUTO 12005KT 10SM CLR 29/12 A3001 RMK AO2 T02920115
KTTA 192300Z AUTO 13004KT 10SM CLR 30/12 A3000 RMK AO2 T02960116
KTTA 192240Z AUTO 10005KT 10SM CLR 30/12 A3000 RMK AO2 T03020119
KTTA 192220Z AUTO 15005KT 10SM CLR 30/12 A3000 RMK AO2 T03020120
KTTA 192200Z AUTO 10005KT 10SM CLR 30/12 A3000 RMK AO2 T03040122
KTTA 192140Z AUTO 11007KT 10SM CLR 30/12 A3001 RMK AO2 T03040122
KTTA 192120Z AUTO 14006KT 10SM CLR 31/13 A3001 RMK AO2 T03060125
KTTA 192100Z AUTO 15004KT 10SM CLR 31/13 A3001 RMK AO2 T03090128
KTTA 192040Z AUTO 06006KT 10SM CLR 31/13 A3001 RMK AO2 T03080130
KTTA 192020Z AUTO 10003KT 10SM CLR 31/13 A3002 RMK AO2 T03060134
KTTA 192000Z AUTO 09004KT 10SM CLR 31/14 A3002 RMK AO2 T03050139
KTTA 191940Z AUTO 09007KT 10SM CLR 30/14 A3003 RMK AO2 T03010137
KTTA 191920Z AUTO 07005KT 10SM CLR 30/14 A3004 RMK AO2 T03020143
KTTA 191900Z AUTO 10007KT 050V130 10SM CLR 31/15 A3004 RMK AO2 T03060146
KTTA 191840Z AUTO 08005G08KT 10SM CLR 30/14 A3005 RMK AO2 T02990140
KTTA 191800Z AUTO 11006KT 060V120 10SM CLR 30/14 A3005 RMK AO2 T02950143
KTTA 191740Z AUTO 08009G15KT 040V120 10SM CLR 30/15 A3006 RMK AO2 T02990145
KTTA 191720Z AUTO 07005KT 10SM CLR 29/14 A3006 RMK AO2 T02880144
KTTA 191700Z AUTO 03008KT 10SM CLR 29/15 A3007 RMK AO2 T02910145
KTTA 191640Z AUTO 08005KT 040V120 10SM CLR 29/14 A3007 RMK AO2 T02850144
KTTA 191620Z AUTO 07007KT 10SM CLR 29/14 A3007 RMK AO2 T02880141
KTTA 191600Z AUTO 07006KT 10SM CLR 29/14 A3008 RMK AO2 T02850140
KTTA 191540Z AUTO 06005KT 10SM CLR 28/14 A3008 RMK AO2 T02820138
KTTA 191520Z AUTO 11007KT 10SM CLR 29/15 A3008 RMK AO2 T02870148
KTTA 191500Z AUTO 08004KT 10SM CLR 27/14 A3008 RMK AO2 T02710141
KTTA 191440Z AUTO 12007KT 10SM CLR 28/16 A3007 RMK AO2 T02770155
KTTA 191420Z AUTO 07005KT 10SM CLR 27/16 A3008 RMK AO2 T02720158
KTTA 191400Z AUTO 05007KT 10SM CLR 27/17 A3008 RMK AO2 T02650168
KTTA 191340Z AUTO 05005KT 10SM CLR 25/17 A3007 RMK AO2 T02540168
KTTA 191320Z AUTO 00000KT 10SM CLR 24/17 A3007 RMK AO2 T02440170
KTTA 191300Z AUTO 03004KT 10SM CLR 23/17 A3006 RMK AO2 T02310167
KTTA 191240Z AUTO 03004KT 10SM CLR 22/17 A3006 RMK AO2 T02220166
KTTA 191220Z AUTO 03005KT 10SM CLR 21/17 A3006 RMK AO2 T02120168
KTTA 191200Z AUTO 03004KT 10SM CLR 20/17 A3005 RMK AO2 T02030169
KTTA 191140Z AUTO 00000KT 10SM CLR 19/17 A3005 RMK AO2 T01870170
KTTA 191120Z AUTO 00000KT 10SM CLR 17/17 A3004 RMK AO2 T01730167
KTTA 191100Z AUTO 00000KT 10SM CLR 16/16 A3004 RMK AO2 T01630160
KTTA 191040Z AUTO 00000KT 10SM CLR 16/16 A3003 RMK AO2 T01630156
KTTA 191020Z AUTO 00000KT 10SM CLR 17/16 A3003 RMK AO2 T01650156
KTTA 191000Z AUTO 00000KT 10SM CLR 17/16 A3002 RMK AO2 T01690158
KTTA 190940Z AUTO 00000KT 10SM CLR 17/16 A3001 RMK AO2 T01690161
KTTA 190920Z AUTO 00000KT 10SM CLR 17/17 A3001 RMK AO2 T01730169
KTTA 190900Z AUTO 00000KT 10SM CLR 18/17 A3000 RMK AO2 T01820165
KTTA 190840Z AUTO 00000KT 10SM CLR 18/17 A3000 RMK AO2 T01800168
KTTA 190820Z AUTO 00000KT 10SM CLR 19/17 A3000 RMK AO2 T01870170
KTTA 190800Z AUTO 00000KT 10SM CLR 18/17 A3000 RMK AO2 T01840171
KTTA 190740Z AUTO 00000KT 10SM CLR 20/16 A3000 RMK AO2 T02040163
KTTA 190720Z AUTO 08004KT 10SM CLR 21/16 A3000 RMK AO2 T02100163
KTTA 190700Z AUTO 04003KT 10SM CLR 20/18 A3000 RMK AO2 T02040176
KTTA 190640Z AUTO 00000KT 10SM CLR 21/18 A3000 RMK AO2 T02080175
KTTA 190620Z AUTO 02003KT 10SM SCT090 21/18 A3001 RMK AO2 T02110180
KTTA 190600Z AUTO 36003KT 10SM SCT090 22/18 A3001 RMK AO2 T02170175
KTTA 190540Z AUTO 00000KT 10SM SCT090 21/18 A3001 RMK AO2 T02140181
KTTA 190520Z AUTO 00000KT 10SM SCT090 22/18 A3001 RMK AO2 T02210180
KTTA 190500Z AUTO 02003KT 10SM SCT070 SCT090 22/19 A3000 RMK AO2 T02180186
KTTA 190440Z AUTO 00000KT 10SM SCT070 SCT090 22/18 A3001 RMK AO2 T02220184
KTTA 190420Z AUTO 00000KT 10SM SCT070 BKN090 22/19 A2999 RMK AO2 T02170192
KTTA 190400Z AUTO 00000KT 10SM SCT070 SCT085 22/19 A2999 RMK AO2 T02170191
KTTA 190340Z AUTO 00000KT 10SM SCT070 SCT085 22/19 A2999 RMK AO2 T02170187
KTTA 190320Z AUTO 00000KT 10SM BKN070 BKN080 22/19 A2999 RMK AO2 T02150194
KTTA 190300Z AUTO 00000KT 10SM SCT070 SCT080 21/19 A2998 RMK AO2 T02130189
KTTA 190240Z AUTO 00000KT 10SM SCT070 21/19 A2998 RMK AO2 T02120185
KTTA 190220Z AUTO 00000KT 10SM CLR 22/19 A2998 RMK AO2 T02190187
KTTA 190200Z AUTO 00000KT 10SM CLR 23/20 A2997 RMK AO2 T02300196
KTTA 190140Z AUTO 00000KT 10SM CLR 23/19 A2996 RMK AO2 T02260187
KTTA 190120Z AUTO 00000KT 10SM CLR 24/18 A2995 RMK AO2 T02400182
KTTA 190100Z AUTO 00000KT 10SM SCT060 25/18 A2995 RMK AO2 T02500184
KTTA 190040Z AUTO 00000KT 10SM BKN060 26/18 A2994 RMK AO2 T02640183
KTTA 190020Z AUTO 00000KT 10SM SCT060 28/17 A2994 RMK AO2 T02800174
KTTA 190000Z AUTO 12003KT 10SM SCT060 29/17 A2994 RMK AO2 T02860171
KTTA 182340Z AUTO 13003KT 10SM CLR 30/17 A2993 RMK AO2 T02950170
KTTA 182320Z AUTO 11003KT 10SM CLR 30/17 A2993 RMK AO2 T02950172
KTTA 182300Z AUTO 04004KT 10SM CLR 30/17 A2993 RMK AO2 T02980173
KTTA 182240Z AUTO 01004KT 10SM CLR 30/17 A2993 RMK AO2 T02980172
KTTA 182220Z AUTO 01006KT 10SM CLR 30/17 A2992 RMK AO2 T03010170
KTTA 182200Z AUTO 02007KT 10SM CLR 30/17 A2992 RMK AO2 T03000168
KTTA 182120Z AUTO 01007KT 10SM CLR 30/16 A2991 RMK AO2 T03000161
KTTA 182100Z AUTO 02008KT 10SM CLR 30/16 A2992 RMK AO2 T03020164
KTTA 182040Z AUTO 02008KT 10SM SCT060 30/17 A2993 RMK AO2 T03010168
KTTA 182020Z AUTO 01007KT 10SM SCT060 31/17 A2993 RMK AO2 T03050171
KTTA 182000Z AUTO 34008KT 10SM SCT060 30/17 A2994 RMK AO2 T02990167
KTTA 181940Z AUTO 04004KT 10SM SCT060 30/17 A2994 RMK AO2 T03010173
KTTA 181920Z AUTO 01008KT 10SM CLR 30/17 A2994 RMK AO2 T02960165
KTTA 181900Z AUTO 35007KT 10SM CLR 29/17 A2995 RMK AO2 T02940167
KTTA 181840Z AUTO 01007KT 10SM CLR 29/17 A2996 RMK AO2 T02910167
KTTA 181820Z AUTO 36011KT 10SM CLR 30/17 A2995 RMK AO2 T02970168
KTTA 181800Z AUTO 02006KT 350V050 10SM CLR 30/17 A2996 RMK AO2 T02980165
KTTA 181740Z AUTO 36007KT 10SM SCT055 29/17 A2996 RMK AO2 T02880171
KTTA 181720Z AUTO 03005G08KT 10SM CLR 29/17 A2997 RMK AO2 T02910166
KTTA 181700Z AUTO 02008G15KT 10SM CLR 29/16 A2997 RMK AO2 T02860163
KTTA 181640Z AUTO 05007KT 020V080 10SM CLR 29/16 A2997 RMK AO2 T02910160
KTTA 181620Z AUTO 06009KT 360V090 10SM CLR 29/17 A2998 RMK AO2 T02850173
KTTA 181600Z AUTO 01008KT 10SM CLR 28/19 A2998 RMK AO2 T02790190
KTTA 181540Z AUTO 05007KT 10SM CLR 28/19 A2998 RMK AO2 T02770191
KTTA 181520Z AUTO 04003KT 10SM CLR 27/19 A2998 RMK AO2 T02680187